Etusivu
METAR-TAF:

METAR-TAF

Lentoasemat :

Ivalon lentoasema

Ivalo, Suomi

Leveyspiiri: 68-37N, Pituuspiiri: 027-25E, korkeus merenpinnasta: 147 m

Tämänhetkinen sää

Tämä raportti tehtiin 30 minuuttia sitten, kello 02.50 UTC
Tuuli 8 kn lounaasta
Lämpötila 9°C
Kosteus 93%
Ilmanpaine 994 hPa
Näkyvyys 10 km tai enemmän
Pilvistä 1700 ft:n korkeudessa
heikkoja vesikuuroja

METAR: EFIV 200250Z AUTO 22008KT 9999 -SHRA OVC017 09/08 Q0994

Aika: 06:20 (03:20 UTC)

Sääennuste

Tämä raportti tehtiin 24 tuntia ja 43 minuuttia sitten, kello 02.37 UTC
Ennuste voimassa 19. päivästä klo 03 UTC - 19. päivään klo 06 UTC
Tuuli 10 kn etelästä/lounaasta
Näkyvyys 10 km tai enemmän
Hajonneita pilviä 1500 ft:n korkeudessa
heikkoa sadetta
Ajoittain
19. päivästä klo 03 UTC - 19. päivään klo 06 UTC
Tuuli 14 kn etelästä/lounaasta puuskistuen 24 kn:hen
Näkyvyys: 7000 m
Hajonneita pilviä 800 ft:n korkeudessa

TAF: EFIV 190237Z 1903/1906 20010KT 9999 -RA BKN015 TEMPO 1903/1906 20014G24KT 7000 BKN008

Säähavainnot ja -ennusteet yli 4000 lentoasemalta (METAR- ja TAF-raportit).

Käytössä olevat sääasemat on merkitty karttaan keltaisilla ja punaisilla pisteillä.

Aseta hiiri pisteen päälle nähdäksesi sääaseman nimen.

Klikkaa sitten nähdäksesi säähavainnot ja -ennusteet.

Kartan vaihtaminen: klikkaa mustalla rastilla varustettuja vihreitä pisteitä, niin voit zoomata sisään; viivalla varustettua vihreää pistettä, niin voit zoomata ulos tai vihreitä nuolia, niin pääset viereisille kartoille.


METAR-TAF: